sensor_id;sensor_type;location;lat;lon;timestamp;pressure;altitude;pressure_sealevel;temperature;humidity
84501;BME280;74725;44.210;17.906;2024-01-25T00:00:00;98959.38;;;5.35;100.00
84501;BME280;74725;44.210;17.906;2024-01-25T00:02:26;98968.50;;;5.20;100.00
84501;BME280;74725;44.210;17.906;2024-01-25T00:04:52;98980.53;;;5.22;100.00
84501;BME280;74725;44.210;17.906;2024-01-25T00:07:17;98998.94;;;5.06;100.00
84501;BME280;74725;44.210;17.906;2024-01-25T00:09:43;99004.78;;;5.08;100.00
84501;BME280;74725;44.210;17.906;2024-01-25T00:12:08;98998.25;;;5.12;100.00
84501;BME280;74725;44.210;17.906;2024-01-25T00:14:34;98994.00;;;5.11;100.00
84501;BME280;74725;44.210;17.906;2024-01-25T00:17:00;98972.78;;;5.21;100.00
84501;BME280;74725;44.210;17.906;2024-01-25T00:19:25;98960.75;;;5.22;100.00
84501;BME280;74725;44.210;17.906;2024-01-25T00:21:51;98973.16;;;5.19;100.00
84501;BME280;74725;44.210;17.906;2024-01-25T00:24:17;98975.09;;;5.22;100.00
84501;BME280;74725;44.210;17.906;2024-01-25T00:26:42;98977.78;;;5.19;100.00
84501;BME280;74725;44.210;17.906;2024-01-25T00:29:08;98983.19;;;5.19;100.00
84501;BME280;74725;44.210;17.906;2024-01-25T00:31:34;98973.59;;;5.25;100.00
84501;BME280;74725;44.210;17.906;2024-01-25T00:34:00;98960.41;;;5.23;100.00
84501;BME280;74725;44.210;17.906;2024-01-25T00:36:26;98968.63;;;5.00;100.00
84501;BME280;74725;44.210;17.906;2024-01-25T00:38:52;98963.28;;;5.07;100.00
84501;BME280;74725;44.210;17.906;2024-01-25T00:41:18;98967.63;;;5.12;100.00
84501;BME280;74725;44.210;17.906;2024-01-25T00:43:45;98982.75;;;5.13;100.00
84501;BME280;74725;44.210;17.906;2024-01-25T00:46:11;98985.03;;;5.11;100.00
84501;BME280;74725;44.210;17.906;2024-01-25T00:48:38;98978.81;;;5.10;100.00
84501;BME280;74725;44.210;17.906;2024-01-25T00:51:07;98990.22;;;4.93;100.00
84501;BME280;74725;44.210;17.906;2024-01-25T00:56:14;98981.25;;;4.89;100.00
84501;BME280;74725;44.210;17.906;2024-01-25T00:58:41;98977.28;;;4.83;100.00
84501;BME280;74725;44.210;17.906;2024-01-25T01:01:07;98988.84;;;4.80;100.00
84501;BME280;74725;44.210;17.906;2024-01-25T01:06:15;98978.22;;;4.68;100.00
84501;BME280;74725;44.210;17.906;2024-01-25T01:08:40;98969.03;;;4.76;100.00
84501;BME280;74725;44.210;17.906;2024-01-25T01:11:06;98965.19;;;4.77;100.00
84501;BME280;74725;44.210;17.906;2024-01-25T01:16:13;98954.63;;;4.98;100.00
84501;BME280;74725;44.210;17.906;2024-01-25T01:18:39;98968.63;;;5.00;100.00
84501;BME280;74725;44.210;17.906;2024-01-25T01:21:04;98977.13;;;4.99;100.00
84501;BME280;74725;44.210;17.906;2024-01-25T01:26:11;98961.16;;;4.94;100.00
84501;BME280;74725;44.210;17.906;2024-01-25T01:28:37;98966.19;;;4.95;100.00
84501;BME280;74725;44.210;17.906;2024-01-25T01:31:03;98968.91;;;4.95;100.00
84501;BME280;74725;44.210;17.906;2024-01-25T01:33:28;98981.72;;;4.95;100.00
84501;BME280;74725;44.210;17.906;2024-01-25T01:35:54;98980.16;;;4.94;100.00
84501;BME280;74725;44.210;17.906;2024-01-25T01:38:19;98995.97;;;4.88;100.00
84501;BME280;74725;44.210;17.906;2024-01-25T01:40:45;98992.69;;;5.02;100.00
84501;BME280;74725;44.210;17.906;2024-01-25T01:45:52;98992.50;;;5.18;100.00
84501;BME280;74725;44.210;17.906;2024-01-25T01:48:19;99026.34;;;5.24;100.00
84501;BME280;74725;44.210;17.906;2024-01-25T01:50:44;99024.78;;;5.23;100.00
84501;BME280;74725;44.210;17.906;2024-01-25T01:53:10;99032.19;;;5.26;100.00
84501;BME280;74725;44.210;17.906;2024-01-25T01:55:37;99031.50;;;5.32;100.00
84501;BME280;74725;44.210;17.906;2024-01-25T01:58:03;99042.53;;;5.43;100.00
84501;BME280;74725;44.210;17.906;2024-01-25T02:00:30;99039.06;;;5.46;100.00
84501;BME280;74725;44.210;17.906;2024-01-25T02:02:59;99010.50;;;5.59;100.00
84501;BME280;74725;44.210;17.906;2024-01-25T02:05:25;99009.50;;;5.71;100.00
84501;BME280;74725;44.210;17.906;2024-01-25T02:07:50;99019.63;;;5.74;100.00
84501;BME280;74725;44.210;17.906;2024-01-25T02:10:17;99005.94;;;5.67;100.00
84501;BME280;74725;44.210;17.906;2024-01-25T02:12:43;99016.91;;;5.74;100.00
84501;BME280;74725;44.210;17.906;2024-01-25T02:15:09;99023.47;;;5.70;100.00
84501;BME280;74725;44.210;17.906;2024-01-25T02:17:35;99026.94;;;5.70;100.00
84501;BME280;74725;44.210;17.906;2024-01-25T02:20:00;99033.72;;;5.53;100.00
84501;BME280;74725;44.210;17.906;2024-01-25T02:22:28;99034.53;;;5.57;100.00
84501;BME280;74725;44.210;17.906;2024-01-25T02:24:54;99029.19;;;5.64;100.00
84501;BME280;74725;44.210;17.906;2024-01-25T02:27:20;99008.25;;;5.65;100.00
84501;BME280;74725;44.210;17.906;2024-01-25T02:29:45;99014.44;;;5.62;100.00
84501;BME280;74725;44.210;17.906;2024-01-25T02:32:11;99015.91;;;5.56;100.00
84501;BME280;74725;44.210;17.906;2024-01-25T02:34:37;99012.91;;;5.64;100.00
84501;BME280;74725;44.210;17.906;2024-01-25T02:37:02;99018.47;;;5.75;100.00
84501;BME280;74725;44.210;17.906;2024-01-25T02:39:28;99011.78;;;5.69;100.00
84501;BME280;74725;44.210;17.906;2024-01-25T02:41:54;99035.28;;;5.54;100.00
84501;BME280;74725;44.210;17.906;2024-01-25T02:44:20;99055.06;;;5.25;100.00
84501;BME280;74725;44.210;17.906;2024-01-25T02:46:45;99040.03;;;5.31;100.00
84501;BME280;74725;44.210;17.906;2024-01-25T02:49:12;99035.44;;;5.35;100.00
84501;BME280;74725;44.210;17.906;2024-01-25T02:51:37;99041.25;;;5.37;100.00
84501;BME280;74725;44.210;17.906;2024-01-25T02:54:03;99041.78;;;5.46;100.00
84501;BME280;74725;44.210;17.906;2024-01-25T02:56:29;99053.84;;;5.49;100.00
84501;BME280;74725;44.210;17.906;2024-01-25T02:59:00;99047.69;;;5.52;100.00
84501;BME280;74725;44.210;17.906;2024-01-25T03:01:37;99039.38;;;5.41;100.00
84501;BME280;74725;44.210;17.906;2024-01-25T03:06:28;99033.91;;;5.68;100.00
84501;BME280;74725;44.210;17.906;2024-01-25T03:08:54;99022.66;;;5.69;100.00
84501;BME280;74725;44.210;17.906;2024-01-25T03:11:20;99019.16;;;5.69;100.00
84501;BME280;74725;44.210;17.906;2024-01-25T03:13:45;99036.28;;;5.73;100.00
84501;BME280;74725;44.210;17.906;2024-01-25T03:16:11;99018.72;;;5.63;100.00
84501;BME280;74725;44.210;17.906;2024-01-25T03:18:37;99015.69;;;5.72;100.00
84501;BME280;74725;44.210;17.906;2024-01-25T03:21:02;99016.84;;;5.71;100.00
84501;BME280;74725;44.210;17.906;2024-01-25T03:23:28;99014.53;;;5.73;100.00
84501;BME280;74725;44.210;17.906;2024-01-25T03:25:53;98996.31;;;5.73;100.00
84501;BME280;74725;44.210;17.906;2024-01-25T03:28:19;98983.13;;;5.75;100.00
84501;BME280;74725;44.210;17.906;2024-01-25T03:30:45;99007.50;;;5.68;100.00
84501;BME280;74725;44.210;17.906;2024-01-25T03:33:10;99005.06;;;5.59;100.00
84501;BME280;74725;44.210;17.906;2024-01-25T03:35:36;98991.31;;;5.45;100.00
84501;BME280;74725;44.210;17.906;2024-01-25T03:38:02;98985.91;;;5.49;100.00
84501;BME280;74725;44.210;17.906;2024-01-25T03:40:27;99001.50;;;5.52;100.00
84501;BME280;74725;44.210;17.906;2024-01-25T03:42:53;99017.16;;;5.32;100.00
84501;BME280;74725;44.210;17.906;2024-01-25T03:45:19;99028.00;;;5.32;100.00
84501;BME280;74725;44.210;17.906;2024-01-25T03:47:44;98993.94;;;5.38;100.00
84501;BME280;74725;44.210;17.906;2024-01-25T03:50:10;98976.16;;;5.44;100.00
84501;BME280;74725;44.210;17.906;2024-01-25T03:52:36;98988.50;;;5.38;100.00
84501;BME280;74725;44.210;17.906;2024-01-25T03:55:01;98984.81;;;5.53;100.00
84501;BME280;74725;44.210;17.906;2024-01-25T03:57:28;98973.22;;;5.56;100.00
84501;BME280;74725;44.210;17.906;2024-01-25T03:59:54;98957.03;;;5.67;100.00
84501;BME280;74725;44.210;17.906;2024-01-25T04:02:19;98962.88;;;5.69;100.00
84501;BME280;74725;44.210;17.906;2024-01-25T04:04:45;98988.13;;;5.70;100.00
84501;BME280;74725;44.210;17.906;2024-01-25T04:07:11;99005.16;;;5.67;100.00
84501;BME280;74725;44.210;17.906;2024-01-25T04:09:36;98984.22;;;5.67;100.00
84501;BME280;74725;44.210;17.906;2024-01-25T04:12:02;98997.34;;;5.61;100.00
84501;BME280;74725;44.210;17.906;2024-01-25T04:17:03;98995.06;;;5.67;100.00
84501;BME280;74725;44.210;17.906;2024-01-25T04:19:29;98988.81;;;5.63;100.00
84501;BME280;74725;44.210;17.906;2024-01-25T04:21:54;98960.09;;;5.62;100.00
84501;BME280;74725;44.210;17.906;2024-01-25T04:24:20;98979.97;;;5.70;100.00
84501;BME280;74725;44.210;17.906;2024-01-25T04:26:46;99001.16;;;5.57;100.00
84501;BME280;74725;44.210;17.906;2024-01-25T04:29:12;98981.06;;;5.61;100.00
84501;BME280;74725;44.210;17.906;2024-01-25T04:31:44;98978.34;;;5.61;100.00
84501;BME280;74725;44.210;17.906;2024-01-25T04:34:12;98981.88;;;5.66;100.00
84501;BME280;74725;44.210;17.906;2024-01-25T04:36:38;99013.22;;;5.59;100.00
84501;BME280;74725;44.210;17.906;2024-01-25T04:39:03;99040.03;;;5.61;100.00
84501;BME280;74725;44.210;17.906;2024-01-25T04:41:29;99044.53;;;5.50;100.00
84501;BME280;74725;44.210;17.906;2024-01-25T04:43:54;99021.34;;;5.56;100.00
84501;BME280;74725;44.210;17.906;2024-01-25T04:46:20;99018.94;;;5.51;100.00
84501;BME280;74725;44.210;17.906;2024-01-25T04:48:46;99012.03;;;5.57;100.00
84501;BME280;74725;44.210;17.906;2024-01-25T04:51:18;99010.94;;;5.61;100.00
84501;BME280;74725;44.210;17.906;2024-01-25T04:53:45;99028.41;;;5.64;100.00
84501;BME280;74725;44.210;17.906;2024-01-25T04:56:11;99025.38;;;5.69;100.00
84501;BME280;74725;44.210;17.906;2024-01-25T04:58:37;99025.31;;;5.62;100.00
84501;BME280;74725;44.210;17.906;2024-01-25T05:01:04;99027.59;;;5.60;100.00
84501;BME280;74725;44.210;17.906;2024-01-25T05:03:33;99041.19;;;5.60;100.00
84501;BME280;74725;44.210;17.906;2024-01-25T05:05:59;99050.13;;;5.34;100.00
84501;BME280;74725;44.210;17.906;2024-01-25T05:08:26;99052.97;;;5.41;100.00
84501;BME280;74725;44.210;17.906;2024-01-25T05:10:52;99053.38;;;5.43;100.00
84501;BME280;74725;44.210;17.906;2024-01-25T05:13:18;99059.00;;;5.57;100.00
84501;BME280;74725;44.210;17.906;2024-01-25T05:15:44;99048.34;;;5.45;100.00
84501;BME280;74725;44.210;17.906;2024-01-25T05:18:10;99043.03;;;5.52;100.00
84501;BME280;74725;44.210;17.906;2024-01-25T05:20:35;99051.59;;;5.54;100.00
84501;BME280;74725;44.210;17.906;2024-01-25T05:23:03;99053.22;;;5.59;100.00
84501;BME280;74725;44.210;17.906;2024-01-25T05:25:30;99038.56;;;5.67;100.00
84501;BME280;74725;44.210;17.906;2024-01-25T05:27:56;99061.22;;;5.48;100.00
84501;BME280;74725;44.210;17.906;2024-01-25T05:30:24;99050.50;;;5.32;100.00
84501;BME280;74725;44.210;17.906;2024-01-25T05:32:50;99057.09;;;5.31;100.00
84501;BME280;74725;44.210;17.906;2024-01-25T05:35:16;99070.53;;;5.21;100.00
84501;BME280;74725;44.210;17.906;2024-01-25T05:37:42;99055.50;;;5.27;100.00
84501;BME280;74725;44.210;17.906;2024-01-25T05:40:08;99065.72;;;5.37;100.00
84501;BME280;74725;44.210;17.906;2024-01-25T05:42:35;99070.75;;;5.35;100.00
84501;BME280;74725;44.210;17.906;2024-01-25T05:45:04;99072.31;;;5.36;100.00
84501;BME280;74725;44.210;17.906;2024-01-25T05:47:30;99084.22;;;5.28;100.00
84501;BME280;74725;44.210;17.906;2024-01-25T05:49:56;99090.03;;;5.30;100.00
84501;BME280;74725;44.210;17.906;2024-01-25T05:52:22;99093.59;;;5.34;100.00
84501;BME280;74725;44.210;17.906;2024-01-25T05:54:49;99077.72;;;5.36;100.00
84501;BME280;74725;44.210;17.906;2024-01-25T05:57:15;99061.53;;;5.43;100.00
84501;BME280;74725;44.210;17.906;2024-01-25T05:59:42;99084.00;;;5.40;100.00
84501;BME280;74725;44.210;17.906;2024-01-25T06:02:08;99101.22;;;5.51;100.00
84501;BME280;74725;44.210;17.906;2024-01-25T06:04:34;99114.38;;;5.49;100.00
84501;BME280;74725;44.210;17.906;2024-01-25T06:07:00;99127.19;;;5.49;100.00
84501;BME280;74725;44.210;17.906;2024-01-25T06:09:25;99097.03;;;5.57;100.00
84501;BME280;74725;44.210;17.906;2024-01-25T06:11:51;99077.66;;;5.59;100.00
84501;BME280;74725;44.210;17.906;2024-01-25T06:14:17;99058.88;;;5.47;100.00
84501;BME280;74725;44.210;17.906;2024-01-25T06:16:43;99066.25;;;5.50;100.00
84501;BME280;74725;44.210;17.906;2024-01-25T06:19:10;99070.09;;;5.19;100.00
84501;BME280;74725;44.210;17.906;2024-01-25T06:21:36;99066.13;;;5.39;100.00
84501;BME280;74725;44.210;17.906;2024-01-25T06:24:04;99056.63;;;5.26;100.00
84501;BME280;74725;44.210;17.906;2024-01-25T06:29:20;99073.06;;;5.36;100.00
84501;BME280;74725;44.210;17.906;2024-01-25T06:31:46;99072.47;;;5.47;100.00
84501;BME280;74725;44.210;17.906;2024-01-25T06:34:12;99082.22;;;5.25;100.00
84501;BME280;74725;44.210;17.906;2024-01-25T06:39:28;99078.66;;;5.21;100.00
84501;BME280;74725;44.210;17.906;2024-01-25T06:41:55;99085.25;;;5.20;100.00
84501;BME280;74725;44.210;17.906;2024-01-25T06:44:21;99085.44;;;5.34;100.00
84501;BME280;74725;44.210;17.906;2024-01-25T06:46:47;99082.72;;;5.34;100.00
84501;BME280;74725;44.210;17.906;2024-01-25T06:49:15;99074.69;;;5.41;100.00
84501;BME280;74725;44.210;17.906;2024-01-25T06:51:41;99081.09;;;5.56;100.00
84501;BME280;74725;44.210;17.906;2024-01-25T06:54:06;99074.25;;;5.66;100.00
84501;BME280;74725;44.210;17.906;2024-01-25T06:56:32;99077.38;;;5.68;100.00
84501;BME280;74725;44.210;17.906;2024-01-25T06:58:59;99089.31;;;5.59;100.00
84501;BME280;74725;44.210;17.906;2024-01-25T07:01:25;99094.31;;;5.57;100.00
84501;BME280;74725;44.210;17.906;2024-01-25T07:03:53;99105.94;;;5.54;100.00
84501;BME280;74725;44.210;17.906;2024-01-25T07:06:19;99112.25;;;5.62;100.00
84501;BME280;74725;44.210;17.906;2024-01-25T07:08:45;99096.72;;;5.62;100.00
84501;BME280;74725;44.210;17.906;2024-01-25T07:11:12;99102.25;;;5.70;100.00
84501;BME280;74725;44.210;17.906;2024-01-25T07:13:37;99092.56;;;5.72;100.00
84501;BME280;74725;44.210;17.906;2024-01-25T07:16:03;99101.16;;;5.74;100.00
84501;BME280;74725;44.210;17.906;2024-01-25T07:18:29;99092.72;;;5.83;100.00
84501;BME280;74725;44.210;17.906;2024-01-25T07:20:55;99076.19;;;5.95;100.00
84501;BME280;74725;44.210;17.906;2024-01-25T07:23:45;99086.72;;;5.97;100.00
84501;BME280;74725;44.210;17.906;2024-01-25T07:26:23;99085.19;;;5.99;100.00
84501;BME280;74725;44.210;17.906;2024-01-25T07:28:50;99100.25;;;5.93;100.00
84501;BME280;74725;44.210;17.906;2024-01-25T07:31:20;99111.44;;;6.18;100.00
84501;BME280;74725;44.210;17.906;2024-01-25T07:33:46;99109.63;;;6.29;100.00
84501;BME280;74725;44.210;17.906;2024-01-25T07:36:12;99116.31;;;6.35;100.00
84501;BME280;74725;44.210;17.906;2024-01-25T07:38:41;99111.63;;;6.36;100.00
84501;BME280;74725;44.210;17.906;2024-01-25T07:41:08;99113.59;;;6.35;100.00
84501;BME280;74725;44.210;17.906;2024-01-25T07:43:35;99125.56;;;6.31;100.00
84501;BME280;74725;44.210;17.906;2024-01-25T07:46:00;99117.13;;;6.40;100.00
84501;BME280;74725;44.210;17.906;2024-01-25T07:48:28;99124.94;;;6.45;100.00
84501;BME280;74725;44.210;17.906;2024-01-25T07:50:54;99126.81;;;6.37;100.00
84501;BME280;74725;44.210;17.906;2024-01-25T07:53:20;99122.44;;;6.29;100.00
84501;BME280;74725;44.210;17.906;2024-01-25T07:55:49;99116.13;;;6.21;100.00
84501;BME280;74725;44.210;17.906;2024-01-25T07:58:22;99124.41;;;6.32;100.00
84501;BME280;74725;44.210;17.906;2024-01-25T08:00:56;99114.03;;;6.41;100.00
84501;BME280;74725;44.210;17.906;2024-01-25T08:03:24;99104.47;;;6.54;100.00
84501;BME280;74725;44.210;17.906;2024-01-25T08:06:04;99106.50;;;6.68;100.00
84501;BME280;74725;44.210;17.906;2024-01-25T08:08:53;99102.00;;;6.83;100.00
84501;BME280;74725;44.210;17.906;2024-01-25T08:11:21;99090.81;;;6.95;100.00
84501;BME280;74725;44.210;17.906;2024-01-25T08:13:47;99104.13;;;7.07;100.00
84501;BME280;74725;44.210;17.906;2024-01-25T08:16:16;99102.34;;;7.26;100.00
84501;BME280;74725;44.210;17.906;2024-01-25T08:18:55;99098.13;;;7.39;100.00
84501;BME280;74725;44.210;17.906;2024-01-25T08:21:21;99090.63;;;7.22;100.00
84501;BME280;74725;44.210;17.906;2024-01-25T08:23:46;99075.72;;;7.08;100.00
84501;BME280;74725;44.210;17.906;2024-01-25T08:26:12;99100.50;;;6.93;100.00
84501;BME280;74725;44.210;17.906;2024-01-25T08:28:40;99109.47;;;6.93;100.00
84501;BME280;74725;44.210;17.906;2024-01-25T08:31:06;99106.25;;;6.80;100.00
84501;BME280;74725;44.210;17.906;2024-01-25T08:33:33;99129.09;;;6.72;100.00
84501;BME280;74725;44.210;17.906;2024-01-25T08:36:00;99104.25;;;6.74;100.00
84501;BME280;74725;44.210;17.906;2024-01-25T08:38:30;99110.25;;;6.94;100.00
84501;BME280;74725;44.210;17.906;2024-01-25T08:40:57;99110.44;;;7.19;100.00
84501;BME280;74725;44.210;17.906;2024-01-25T08:43:22;99065.47;;;7.46;100.00
84501;BME280;74725;44.210;17.906;2024-01-25T08:45:48;99075.44;;;7.21;100.00
84501;BME280;74725;44.210;17.906;2024-01-25T08:48:14;99080.69;;;7.54;100.00
84501;BME280;74725;44.210;17.906;2024-01-25T08:50:39;99094.28;;;7.44;100.00
84501;BME280;74725;44.210;17.906;2024-01-25T08:53:05;99078.38;;;7.53;100.00
84501;BME280;74725;44.210;17.906;2024-01-25T08:55:31;99064.31;;;7.44;100.00
84501;BME280;74725;44.210;17.906;2024-01-25T08:57:57;99064.38;;;7.62;100.00
84501;BME280;74725;44.210;17.906;2024-01-25T09:00:23;99058.94;;;7.62;100.00
84501;BME280;74725;44.210;17.906;2024-01-25T09:02:53;99038.00;;;7.83;100.00
84501;BME280;74725;44.210;17.906;2024-01-25T09:05:19;99049.38;;;8.03;100.00
84501;BME280;74725;44.210;17.906;2024-01-25T09:07:45;99051.34;;;8.10;100.00
84501;BME280;74725;44.210;17.906;2024-01-25T09:10:11;99039.69;;;8.13;100.00
84501;BME280;74725;44.210;17.906;2024-01-25T09:12:37;99043.53;;;8.08;100.00
84501;BME280;74725;44.210;17.906;2024-01-25T09:15:05;99048.25;;;8.15;100.00
84501;BME280;74725;44.210;17.906;2024-01-25T09:17:30;99054.88;;;8.18;100.00
84501;BME280;74725;44.210;17.906;2024-01-25T09:19:56;99037.38;;;8.33;100.00
84501;BME280;74725;44.210;17.906;2024-01-25T09:22:24;99017.16;;;8.41;100.00
84501;BME280;74725;44.210;17.906;2024-01-25T09:24:53;99014.38;;;8.30;100.00
84501;BME280;74725;44.210;17.906;2024-01-25T09:27:20;99028.00;;;8.30;100.00
84501;BME280;74725;44.210;17.906;2024-01-25T09:29:46;99037.38;;;8.37;100.00
84501;BME280;74725;44.210;17.906;2024-01-25T09:32:27;99043.22;;;8.35;100.00
84501;BME280;74725;44.210;17.906;2024-01-25T09:34:56;99050.13;;;7.97;100.00
84501;BME280;74725;44.210;17.906;2024-01-25T09:37:37;99054.09;;;8.17;100.00
84501;BME280;74725;44.210;17.906;2024-01-25T09:40:04;99042.41;;;8.27;100.00
84501;BME280;74725;44.210;17.906;2024-01-25T09:42:31;99031.91;;;8.29;100.00
84501;BME280;74725;44.210;17.906;2024-01-25T09:44:57;99037.81;;;8.49;100.00
84501;BME280;74725;44.210;17.906;2024-01-25T09:47:23;99035.88;;;8.61;100.00
84501;BME280;74725;44.210;17.906;2024-01-25T09:49:49;99014.03;;;8.61;100.00
84501;BME280;74725;44.210;17.906;2024-01-25T09:52:18;99018.72;;;8.56;100.00
84501;BME280;74725;44.210;17.906;2024-01-25T09:54:52;99026.13;;;8.67;100.00
84501;BME280;74725;44.210;17.906;2024-01-25T09:57:24;99042.13;;;8.68;100.00
84501;BME280;74725;44.210;17.906;2024-01-25T09:59:54;99032.75;;;8.80;100.00
84501;BME280;74725;44.210;17.906;2024-01-25T10:02:35;99024.94;;;8.89;100.00
84501;BME280;74725;44.210;17.906;2024-01-25T10:05:02;99023.41;;;8.99;100.00
84501;BME280;74725;44.210;17.906;2024-01-25T10:07:44;99013.66;;;8.91;100.00
84501;BME280;74725;44.210;17.906;2024-01-25T10:10:11;99014.81;;;8.82;100.00
84501;BME280;74725;44.210;17.906;2024-01-25T10:12:38;99012.47;;;8.85;100.00
84501;BME280;74725;44.210;17.906;2024-01-25T10:15:06;99015.97;;;8.96;100.00
84501;BME280;74725;44.210;17.906;2024-01-25T10:17:31;99012.06;;;9.04;100.00
84501;BME280;74725;44.210;17.906;2024-01-25T10:19:57;98995.31;;;8.91;100.00
84501;BME280;74725;44.210;17.906;2024-01-25T10:22:23;98981.25;;;8.86;100.00
84501;BME280;74725;44.210;17.906;2024-01-25T10:24:49;98971.88;;;8.90;100.00
84501;BME280;74725;44.210;17.906;2024-01-25T10:27:19;98979.31;;;8.75;100.00
84501;BME280;74725;44.210;17.906;2024-01-25T10:29:44;98980.09;;;8.76;100.00
84501;BME280;74725;44.210;17.906;2024-01-25T10:32:11;98989.06;;;8.73;100.00
84501;BME280;74725;44.210;17.906;2024-01-25T10:34:38;98982.84;;;8.83;100.00
84501;BME280;74725;44.210;17.906;2024-01-25T10:37:25;98971.09;;;8.90;100.00
84501;BME280;74725;44.210;17.906;2024-01-25T10:39:54;98971.09;;;8.90;100.00
84501;BME280;74725;44.210;17.906;2024-01-25T10:42:25;98977.38;;;8.72;100.00
84501;BME280;74725;44.210;17.906;2024-01-25T10:44:52;98970.72;;;8.63;100.00
84501;BME280;74725;44.210;17.906;2024-01-25T10:47:17;98966.06;;;8.52;100.00
84501;BME280;74725;44.210;17.906;2024-01-25T10:49:46;98972.69;;;8.51;100.00
84501;BME280;74725;44.210;17.906;2024-01-25T10:52:12;98966.44;;;8.58;100.00
84501;BME280;74725;44.210;17.906;2024-01-25T10:54:39;98968.41;;;8.72;100.00
84501;BME280;74725;44.210;17.906;2024-01-25T10:57:06;98963.31;;;8.74;100.00
84501;BME280;74725;44.210;17.906;2024-01-25T10:59:32;98960.59;;;8.67;100.00
84501;BME280;74725;44.210;17.906;2024-01-25T11:02:00;98953.97;;;8.57;100.00
84501;BME280;74725;44.210;17.906;2024-01-25T11:04:26;98980.09;;;8.51;100.00
84501;BME280;74725;44.210;17.906;2024-01-25T11:06:52;98984.78;;;8.50;100.00
84501;BME280;74725;44.210;17.906;2024-01-25T11:09:20;98983.97;;;8.75;100.00
84501;BME280;74725;44.210;17.906;2024-01-25T11:11:48;98970.31;;;8.96;100.00
84501;BME280;74725;44.210;17.906;2024-01-25T11:14:14;98948.44;;;9.00;100.00
84501;BME280;74725;44.210;17.906;2024-01-25T11:16:44;98939.84;;;8.98;100.00
84501;BME280;74725;44.210;17.906;2024-01-25T11:19:21;98925.47;;;8.76;100.00
84501;BME280;74725;44.210;17.906;2024-01-25T11:21:56;98894.25;;;8.77;100.00
84501;BME280;74725;44.210;17.906;2024-01-25T11:27:13;98898.09;;;9.04;100.00
84501;BME280;74725;44.210;17.906;2024-01-25T11:29:39;98904.34;;;9.05;100.00
84501;BME280;74725;44.210;17.906;2024-01-25T11:32:09;98912.16;;;9.06;100.00
84501;BME280;74725;44.210;17.906;2024-01-25T11:34:35;98910.22;;;8.93;100.00
84501;BME280;74725;44.210;17.906;2024-01-25T11:37:00;98916.78;;;9.13;100.00
84501;BME280;74725;44.210;17.906;2024-01-25T11:39:27;98930.84;;;9.19;100.00
84501;BME280;74725;44.210;17.906;2024-01-25T11:41:52;98917.94;;;9.23;100.00
84501;BME280;74725;44.210;17.906;2024-01-25T11:44:18;98908.53;;;9.31;100.00
84501;BME280;74725;44.210;17.906;2024-01-25T11:46:44;98892.94;;;9.21;100.00
84501;BME280;74725;44.210;17.906;2024-01-25T11:49:10;98877.75;;;9.13;100.00
84501;BME280;74725;44.210;17.906;2024-01-25T11:51:45;98878.47;;;9.31;100.00
84501;BME280;74725;44.210;17.906;2024-01-25T11:54:16;98879.31;;;9.14;100.00
84501;BME280;74725;44.210;17.906;2024-01-25T11:56:43;98878.13;;;9.22;100.00
84501;BME280;74725;44.210;17.906;2024-01-25T11:59:09;98873.06;;;9.17;100.00
84501;BME280;74725;44.210;17.906;2024-01-25T12:01:36;98875.41;;;9.22;100.00
84501;BME280;74725;44.210;17.906;2024-01-25T12:04:02;98867.59;;;9.20;100.00
84501;BME280;74725;44.210;17.906;2024-01-25T12:06:28;98874.19;;;9.26;100.00
84501;BME280;74725;44.210;17.906;2024-01-25T12:08:55;98862.03;;;9.38;100.00
84501;BME280;74725;44.210;17.906;2024-01-25T12:11:20;98872.13;;;9.48;100.00
84501;BME280;74725;44.210;17.906;2024-01-25T12:13:48;98875.66;;;9.52;100.00
84501;BME280;74725;44.210;17.906;2024-01-25T12:16:13;98872.91;;;9.52;100.00
84501;BME280;74725;44.210;17.906;2024-01-25T12:18:42;98860.41;;;9.51;100.00
84501;BME280;74725;44.210;17.906;2024-01-25T12:21:08;98857.66;;;9.51;100.00
84501;BME280;74725;44.210;17.906;2024-01-25T12:23:38;98874.09;;;9.44;100.00
84501;BME280;74725;44.210;17.906;2024-01-25T12:26:06;98852.94;;;9.59;100.00
84501;BME280;74725;44.210;17.906;2024-01-25T12:28:32;98852.19;;;9.55;100.00
84501;BME280;74725;44.210;17.906;2024-01-25T12:31:01;98844.31;;;9.64;100.00
84501;BME280;74725;44.210;17.906;2024-01-25T12:33:28;98838.75;;;9.75;100.00
84501;BME280;74725;44.210;17.906;2024-01-25T12:35:54;98841.06;;;9.84;100.00
84501;BME280;74725;44.210;17.906;2024-01-25T12:38:21;98842.63;;;9.81;100.00
84501;BME280;74725;44.210;17.906;2024-01-25T12:40:48;98843.44;;;9.74;100.00
84501;BME280;74725;44.210;17.906;2024-01-25T12:43:15;98835.25;;;9.74;100.00
84501;BME280;74725;44.210;17.906;2024-01-25T12:45:41;98821.50;;;9.85;100.00
84501;BME280;74725;44.210;17.906;2024-01-25T12:48:07;98830.75;;;9.98;100.00
84501;BME280;74725;44.210;17.906;2024-01-25T12:50:34;98825.22;;;10.09;100.00
84501;BME280;74725;44.210;17.906;2024-01-25T12:53:01;98822.88;;;10.08;100.00
84501;BME280;74725;44.210;17.906;2024-01-25T12:55:31;98816.91;;;10.20;100.00
84501;BME280;74725;44.210;17.906;2024-01-25T12:57:58;98821.97;;;10.25;100.00
84501;BME280;74725;44.210;17.906;2024-01-25T13:00:23;98821.91;;;10.32;100.00
84501;BME280;74725;44.210;17.906;2024-01-25T13:02:50;98814.44;;;10.36;99.83
84501;BME280;74725;44.210;17.906;2024-01-25T13:05:16;98809.28;;;10.45;100.00
84501;BME280;74725;44.210;17.906;2024-01-25T13:07:42;98813.09;;;10.51;98.75
84501;BME280;74725;44.210;17.906;2024-01-25T13:10:14;98811.16;;;10.52;97.85
84501;BME280;74725;44.210;17.906;2024-01-25T13:13:20;98811.22;;;10.45;97.98
84501;BME280;74725;44.210;17.906;2024-01-25T13:15:46;98813.91;;;10.48;98.29